createdAt,value
2022-09-15T00:01:12.591Z,18.50
2022-09-15T00:03:49.004Z,18.50
2022-09-15T00:06:17.539Z,18.40
2022-09-15T00:08:44.921Z,18.50
2022-09-15T00:11:24.445Z,18.40
2022-09-15T00:13:53.143Z,18.40
2022-09-15T00:16:23.379Z,18.40
2022-09-15T00:18:50.968Z,18.40
2022-09-15T00:21:23.680Z,18.40
2022-09-15T00:23:52.073Z,18.40
2022-09-15T00:26:24.023Z,18.40
2022-09-15T00:28:52.211Z,18.40
2022-09-15T00:31:23.411Z,18.40
2022-09-15T00:33:55.038Z,18.40
2022-09-15T00:36:24.547Z,18.40
2022-09-15T00:38:52.666Z,18.40
2022-09-15T00:41:22.744Z,18.40
2022-09-15T00:44:05.891Z,18.40
2022-09-15T00:46:40.995Z,18.40
2022-09-15T00:49:29.521Z,18.40
2022-09-15T00:52:17.502Z,18.40
2022-09-15T00:55:28.398Z,18.30
2022-09-15T00:58:08.754Z,18.30
2022-09-15T01:00:36.754Z,18.40
2022-09-15T01:03:04.648Z,18.30
2022-09-15T01:05:41.122Z,18.30
2022-09-15T01:08:17.478Z,18.30
2022-09-15T01:10:46.726Z,18.30
2022-09-15T01:13:15.306Z,18.30
2022-09-15T01:16:09.919Z,18.20
2022-09-15T01:19:17.596Z,18.30
2022-09-15T01:22:04.618Z,18.30
2022-09-15T01:24:52.925Z,18.30
2022-09-15T01:28:16.080Z,18.20
2022-09-15T01:31:01.213Z,18.30
2022-09-15T01:33:37.757Z,18.20
2022-09-15T01:36:24.201Z,18.20
2022-09-15T01:39:07.575Z,18.20
2022-09-15T01:42:03.375Z,18.20
2022-09-15T01:44:49.469Z,18.20
2022-09-15T01:47:20.977Z,18.20
2022-09-15T01:49:59.274Z,18.20
2022-09-15T01:52:28.993Z,18.20
2022-09-15T01:55:04.622Z,18.20
2022-09-15T01:57:33.282Z,18.20
2022-09-15T02:00:01.033Z,18.20
2022-09-15T02:02:40.827Z,18.20
2022-09-15T02:05:50.127Z,18.20
2022-09-15T02:08:40.582Z,18.20
2022-09-15T02:11:22.777Z,18.20
2022-09-15T02:13:59.758Z,18.20
2022-09-15T02:16:35.164Z,18.20
2022-09-15T02:19:13.636Z,18.10
2022-09-15T02:21:57.170Z,18.20
2022-09-15T02:24:56.421Z,18.20
2022-09-15T02:27:29.805Z,18.20
2022-09-15T02:30:05.883Z,18.20
2022-09-15T02:32:36.863Z,18.10
2022-09-15T02:35:09.893Z,18.10
2022-09-15T02:37:38.885Z,18.10
2022-09-15T02:40:07.731Z,18.10
2022-09-15T02:42:35.474Z,18.00
2022-09-15T02:45:04.515Z,18.10
2022-09-15T02:47:32.433Z,18.00
2022-09-15T02:50:00.112Z,18.00
2022-09-15T02:52:30.554Z,18.00
2022-09-15T02:54:57.478Z,18.00
2022-09-15T02:57:24.534Z,18.00
2022-09-15T03:00:10.655Z,18.00
2022-09-15T03:02:38.370Z,18.00
2022-09-15T03:05:08.103Z,18.00
2022-09-15T03:07:37.154Z,18.00
2022-09-15T03:10:08.031Z,18.00
2022-09-15T03:12:51.465Z,18.00
2022-09-15T03:15:24.757Z,18.00
2022-09-15T03:17:53.251Z,18.00
2022-09-15T03:20:26.027Z,18.00
2022-09-15T03:22:53.357Z,18.00
2022-09-15T03:25:21.122Z,18.00
2022-09-15T03:27:48.460Z,18.00
2022-09-15T03:30:15.803Z,18.00
2022-09-15T03:32:43.665Z,18.00
2022-09-15T03:35:10.685Z,18.00
2022-09-15T03:37:38.333Z,18.00
2022-09-15T03:40:06.670Z,18.00
2022-09-15T03:42:33.900Z,18.00
2022-09-15T03:45:01.445Z,18.00
2022-09-15T03:47:28.941Z,18.00
2022-09-15T03:49:56.198Z,18.00
2022-09-15T03:52:23.479Z,18.00
2022-09-15T03:54:50.551Z,18.00
2022-09-15T03:57:17.661Z,17.90
2022-09-15T03:59:44.829Z,17.90
2022-09-15T04:02:11.941Z,18.00
2022-09-15T04:04:39.276Z,17.90
2022-09-15T04:07:06.407Z,17.90
2022-09-15T04:09:33.710Z,17.90
2022-09-15T04:12:00.754Z,17.90
2022-09-15T04:14:28.015Z,17.90
2022-09-15T04:16:55.264Z,17.90
2022-09-15T04:19:22.369Z,17.90
2022-09-15T04:21:49.598Z,17.80
2022-09-15T04:24:17.185Z,17.80
2022-09-15T04:26:45.155Z,17.80
2022-09-15T04:29:16.489Z,17.70
2022-09-15T04:31:43.773Z,17.80
2022-09-15T04:34:11.398Z,17.70
2022-09-15T04:36:38.732Z,17.70
2022-09-15T04:39:06.640Z,17.70
2022-09-15T04:41:34.829Z,17.70
2022-09-15T04:44:02.972Z,17.70
2022-09-15T04:46:31.133Z,17.70
2022-09-15T04:48:58.403Z,17.70
2022-09-15T04:51:27.134Z,17.70
2022-09-15T04:53:54.530Z,17.70
2022-09-15T04:56:25.508Z,17.80
2022-09-15T04:59:03.502Z,17.70
2022-09-15T05:01:35.301Z,17.80
2022-09-15T05:04:04.606Z,17.80
2022-09-15T05:06:33.559Z,17.80
2022-09-15T05:09:05.430Z,17.80
2022-09-15T05:11:36.627Z,17.80
2022-09-15T05:14:04.089Z,17.80
2022-09-15T05:16:31.919Z,17.80
2022-09-15T05:19:03.077Z,17.90
2022-09-15T05:21:31.509Z,17.90
2022-09-15T05:23:58.544Z,17.90
2022-09-15T05:26:28.517Z,17.90
2022-09-15T05:28:57.555Z,17.90
2022-09-15T05:31:30.459Z,17.90
2022-09-15T05:34:00.533Z,17.90
2022-09-15T05:36:27.674Z,18.00
2022-09-15T05:38:58.033Z,18.00
2022-09-15T05:41:28.306Z,18.00
2022-09-15T05:43:57.558Z,18.00
2022-09-15T05:46:26.314Z,18.00
2022-09-15T05:48:56.565Z,18.00
2022-09-15T05:51:24.691Z,18.00
2022-09-15T05:53:52.157Z,18.10
2022-09-15T05:56:20.163Z,18.10
2022-09-15T05:58:49.281Z,18.10
2022-09-15T06:01:23.876Z,18.10
2022-09-15T06:03:51.932Z,18.10
2022-09-15T06:06:21.888Z,18.20
2022-09-15T06:08:58.141Z,18.20
2022-09-15T06:11:30.331Z,18.20
2022-09-15T06:14:00.733Z,18.30
2022-09-15T06:16:33.948Z,18.30
2022-09-15T06:19:02.452Z,18.30
2022-09-15T06:21:32.001Z,18.30
2022-09-15T06:24:04.400Z,18.30
2022-09-15T06:26:31.707Z,18.40
2022-09-15T06:29:02.773Z,18.30
2022-09-15T06:31:33.513Z,18.40
2022-09-15T06:34:03.945Z,18.50
2022-09-15T06:36:32.360Z,18.50
2022-09-15T06:38:59.996Z,18.50
2022-09-15T06:41:35.337Z,18.60
2022-09-15T06:44:20.085Z,18.60
2022-09-15T06:46:48.216Z,18.60
2022-09-15T06:49:16.466Z,18.60
2022-09-15T06:51:43.531Z,18.70
2022-09-15T06:54:11.805Z,18.70
2022-09-15T06:56:39.006Z,18.80
2022-09-15T06:59:06.190Z,18.70
2022-09-15T07:01:44.518Z,18.80
2022-09-15T07:04:11.613Z,18.70
2022-09-15T07:06:39.821Z,18.80
2022-09-15T07:09:07.299Z,18.80
2022-09-15T07:11:34.671Z,18.80
2022-09-15T07:14:02.479Z,18.80
2022-09-15T07:16:30.238Z,18.90
2022-09-15T07:19:01.381Z,18.90
2022-09-15T07:21:29.305Z,18.90
2022-09-15T07:24:01.598Z,19.00
2022-09-15T07:26:33.784Z,19.10
2022-09-15T07:29:05.272Z,19.20
2022-09-15T07:31:36.141Z,19.30
2022-09-15T07:34:03.957Z,19.40
2022-09-15T07:36:31.926Z,19.40
2022-09-15T07:38:59.377Z,19.60
2022-09-15T07:41:30.768Z,19.60
2022-09-15T07:44:00.176Z,19.70
2022-09-15T07:46:32.399Z,19.80
2022-09-15T07:49:02.882Z,19.90
2022-09-15T07:51:30.449Z,20.00
2022-09-15T07:53:57.502Z,20.10
2022-09-15T07:56:24.842Z,20.10
2022-09-15T07:58:52.757Z,20.10
2022-09-15T08:01:22.424Z,20.10
2022-09-15T08:03:52.561Z,20.10
2022-09-15T08:06:25.089Z,20.20
2022-09-15T08:08:57.773Z,20.20
2022-09-15T08:11:28.845Z,20.30
2022-09-15T08:13:56.026Z,20.20
2022-09-15T08:16:24.907Z,20.10
2022-09-15T08:18:54.331Z,20.00
2022-09-15T08:21:23.886Z,19.90
2022-09-15T08:23:54.101Z,19.70
2022-09-15T08:26:22.503Z,19.60
2022-09-15T08:28:49.913Z,19.70
2022-09-15T08:31:18.106Z,19.60
2022-09-15T08:33:51.648Z,19.60
2022-09-15T08:36:18.878Z,19.60
2022-09-15T08:38:47.055Z,19.60
2022-09-15T08:41:41.617Z,19.70
2022-09-15T08:44:57.562Z,19.60
2022-09-15T08:47:40.783Z,19.70
2022-09-15T08:50:29.851Z,19.70
2022-09-15T08:53:19.998Z,19.80
2022-09-15T08:55:52.958Z,19.80
2022-09-15T08:58:34.020Z,20.00
2022-09-15T09:01:37.101Z,20.20
2022-09-15T09:04:42.523Z,20.30
2022-09-15T09:08:03.115Z,20.60
2022-09-15T09:10:51.764Z,20.90
2022-09-15T09:14:03.502Z,21.20
2022-09-15T09:16:51.913Z,21.60
2022-09-15T09:19:46.091Z,21.80
2022-09-15T09:22:21.886Z,21.90
2022-09-15T09:24:55.723Z,22.00
2022-09-15T09:27:29.850Z,22.00
2022-09-15T09:30:15.246Z,22.00
2022-09-15T09:33:13.336Z,22.10
2022-09-15T09:35:49.002Z,22.10
2022-09-15T09:38:41.790Z,22.20
2022-09-15T09:41:19.687Z,22.20
2022-09-15T09:43:49.520Z,22.30
2022-09-15T09:46:20.284Z,22.40
2022-09-15T09:48:58.695Z,22.40
2022-09-15T09:51:55.273Z,22.40
2022-09-15T09:54:27.216Z,22.30
2022-09-15T09:57:08.889Z,22.30
2022-09-15T09:59:50.926Z,22.20
2022-09-15T10:02:24.763Z,22.20
2022-09-15T10:05:12.310Z,22.10
2022-09-15T10:07:43.854Z,22.10
2022-09-15T10:10:25.997Z,22.00
2022-09-15T10:12:59.121Z,22.00
2022-09-15T10:15:31.889Z,22.00
2022-09-15T10:18:00.333Z,22.00
2022-09-15T10:20:47.970Z,21.80
2022-09-15T10:23:18.637Z,21.80
2022-09-15T10:26:01.368Z,21.60
2022-09-15T10:28:29.210Z,21.50
2022-09-15T10:31:04.334Z,21.30
2022-09-15T10:33:35.183Z,21.20
2022-09-15T10:36:13.885Z,21.20
2022-09-15T10:38:49.037Z,21.20
2022-09-15T10:41:29.856Z,21.20
2022-09-15T10:44:46.738Z,21.20
2022-09-15T10:47:35.963Z,21.20
2022-09-15T10:50:34.537Z,21.40
2022-09-15T10:53:25.217Z,21.50
2022-09-15T10:56:25.942Z,21.50
2022-09-15T10:59:17.909Z,21.60
2022-09-15T11:02:18.195Z,21.60
2022-09-15T11:05:32.149Z,21.60
2022-09-15T11:08:32.059Z,21.60
2022-09-15T11:11:39.749Z,21.70
2022-09-15T11:14:13.817Z,21.70
2022-09-15T11:17:37.371Z,21.80
2022-09-15T11:20:43.753Z,21.90
2022-09-15T11:23:28.560Z,22.00
2022-09-15T11:26:07.528Z,22.10
2022-09-15T11:28:45.525Z,22.20
2022-09-15T11:31:24.405Z,22.20
2022-09-15T11:34:40.076Z,22.30
2022-09-15T11:37:15.042Z,22.40
2022-09-15T11:39:55.350Z,22.50
2022-09-15T11:42:35.686Z,22.60
2022-09-15T11:45:03.843Z,22.70
2022-09-15T11:47:44.726Z,22.80
2022-09-15T11:50:29.610Z,23.00
2022-09-15T11:53:12.074Z,23.10
2022-09-15T11:55:51.282Z,23.30
2022-09-15T11:59:03.731Z,23.50
2022-09-15T12:01:52.247Z,23.60
2022-09-15T12:04:33.055Z,23.70
2022-09-15T12:07:23.182Z,23.80
2022-09-15T12:09:50.858Z,23.90
2022-09-15T12:12:22.543Z,24.10
2022-09-15T12:14:52.936Z,24.20
2022-09-15T12:17:45.428Z,24.30
2022-09-15T12:20:37.447Z,24.30
2022-09-15T12:23:19.393Z,24.30
2022-09-15T12:26:23.657Z,24.30
2022-09-15T12:29:38.096Z,24.30
2022-09-15T12:32:40.328Z,24.20
2022-09-15T12:35:16.818Z,24.20
2022-09-15T12:37:56.906Z,24.20
2022-09-15T12:40:30.124Z,24.10
2022-09-15T12:42:57.869Z,24.10
2022-09-15T12:45:38.601Z,24.00
2022-09-15T12:48:20.444Z,24.00
2022-09-15T12:51:23.264Z,23.90
2022-09-15T12:54:00.360Z,23.90
2022-09-15T12:56:31.658Z,23.90
2022-09-15T12:59:13.906Z,23.90
2022-09-15T13:01:51.469Z,23.80
2022-09-15T13:04:53.005Z,23.80
2022-09-15T13:07:20.934Z,23.70
2022-09-15T13:10:07.889Z,23.70
2022-09-15T13:12:44.039Z,23.60
2022-09-15T13:15:16.243Z,23.60
2022-09-15T13:17:47.150Z,23.60
2022-09-15T13:20:31.744Z,23.50
2022-09-15T13:23:03.133Z,23.40
2022-09-15T13:25:31.122Z,23.40
2022-09-15T13:28:02.395Z,23.30
2022-09-15T13:31:03.397Z,23.30
2022-09-15T13:41:09.392Z,22.90
2022-09-15T13:44:19.848Z,22.70
2022-09-15T13:47:21.586Z,22.60
2022-09-15T13:50:11.417Z,22.60
2022-09-15T13:53:06.127Z,22.60
2022-09-15T13:55:42.246Z,22.60
2022-09-15T14:01:07.224Z,22.50
2022-09-15T14:03:54.047Z,22.40
2022-09-15T14:06:30.202Z,22.40
2022-09-15T14:09:12.784Z,22.40
2022-09-15T14:11:42.503Z,22.40
2022-09-15T14:14:27.974Z,22.30
2022-09-15T14:16:56.982Z,22.40
2022-09-15T14:19:35.067Z,22.40
2022-09-15T14:22:17.805Z,22.30
2022-09-15T14:24:44.917Z,22.30
2022-09-15T14:27:27.444Z,22.20
2022-09-15T14:30:00.435Z,22.20
2022-09-15T14:32:31.449Z,22.10
2022-09-15T14:35:04.268Z,22.00
2022-09-15T14:37:32.591Z,22.00
2022-09-15T14:40:16.648Z,22.00
2022-09-15T14:42:44.598Z,22.00
2022-09-15T14:48:17.632Z,21.90
2022-09-15T14:51:01.694Z,21.90
2022-09-15T14:53:35.919Z,21.80
2022-09-15T14:56:22.264Z,21.80
2022-09-15T14:59:01.860Z,21.80
2022-09-15T15:01:42.814Z,21.70
2022-09-15T15:04:40.499Z,21.70
2022-09-15T15:07:22.858Z,21.60
2022-09-15T15:10:01.480Z,21.60
2022-09-15T15:12:45.594Z,21.60
2022-09-15T15:15:16.176Z,21.50
2022-09-15T15:17:49.250Z,21.50
2022-09-15T15:20:23.040Z,21.50
2022-09-15T15:23:23.760Z,21.50
2022-09-15T15:25:53.108Z,21.40
2022-09-15T15:28:35.879Z,21.40
2022-09-15T15:31:25.069Z,21.30
2022-09-15T15:33:59.668Z,21.30
2022-09-15T15:36:30.277Z,21.30
2022-09-15T15:39:03.932Z,21.20
2022-09-15T15:41:37.073Z,21.20
2022-09-15T15:44:27.790Z,21.20
2022-09-15T15:47:03.613Z,21.10
2022-09-15T15:49:32.685Z,21.10
2022-09-15T15:52:06.551Z,21.10
2022-09-15T15:54:34.650Z,21.10
2022-09-15T15:57:24.517Z,21.00
2022-09-15T15:59:57.281Z,21.00
2022-09-15T16:02:26.747Z,21.00
2022-09-15T16:04:54.991Z,21.00
2022-09-15T16:07:24.234Z,20.90
2022-09-15T16:09:51.810Z,20.90
2022-09-15T16:12:19.143Z,20.80
2022-09-15T16:14:46.241Z,20.70
2022-09-15T16:17:14.022Z,20.70
2022-09-15T16:19:41.422Z,20.70
2022-09-15T16:22:18.283Z,20.60
2022-09-15T16:24:46.354Z,20.60
2022-09-15T16:27:18.228Z,20.60
2022-09-15T16:29:45.655Z,20.50
2022-09-15T16:32:22.038Z,20.50
2022-09-15T16:34:52.641Z,20.40
2022-09-15T16:37:19.935Z,20.40
2022-09-15T16:39:46.995Z,20.40
2022-09-15T16:42:14.116Z,20.40
2022-09-15T16:44:41.561Z,20.40
2022-09-15T16:47:09.151Z,20.30
2022-09-15T16:49:39.262Z,20.30
2022-09-15T16:52:09.523Z,20.20
2022-09-15T16:54:36.678Z,20.20
2022-09-15T16:57:03.942Z,20.20
2022-09-15T16:59:31.609Z,20.20
2022-09-15T17:01:59.186Z,20.10
2022-09-15T17:04:26.632Z,20.10
2022-09-15T17:06:54.002Z,20.10
2022-09-15T17:09:21.506Z,20.00
2022-09-15T17:11:49.003Z,20.00
2022-09-15T17:14:17.783Z,20.00
2022-09-15T17:16:47.326Z,19.90
2022-09-15T17:19:14.614Z,19.90
2022-09-15T17:21:41.982Z,19.70
2022-09-15T17:24:09.431Z,19.50
2022-09-15T17:26:36.498Z,19.20
2022-09-15T17:29:04.206Z,19.20
2022-09-15T17:31:32.385Z,19.20
2022-09-15T17:34:00.909Z,19.30
2022-09-15T17:36:28.206Z,19.30
2022-09-15T17:38:55.693Z,19.20
2022-09-15T17:41:22.955Z,19.20
2022-09-15T17:43:53.339Z,19.00
2022-09-15T17:46:20.602Z,18.90
2022-09-15T17:48:47.598Z,18.80
2022-09-15T17:51:17.659Z,18.80
2022-09-15T17:53:46.787Z,18.80
2022-09-15T17:56:14.310Z,18.80
2022-09-15T17:58:43.158Z,18.80
2022-09-15T18:01:15.363Z,18.90
2022-09-15T18:03:44.734Z,18.90
2022-09-15T18:06:13.017Z,18.90
2022-09-15T18:08:40.363Z,19.00
2022-09-15T18:11:07.898Z,18.90
2022-09-15T18:13:35.372Z,18.90
2022-09-15T18:16:10.268Z,19.00
2022-09-15T18:18:39.898Z,18.90
2022-09-15T18:21:15.887Z,18.80
2022-09-15T18:23:45.013Z,18.80
2022-09-15T18:26:12.281Z,18.80
2022-09-15T18:28:39.366Z,18.80
2022-09-15T18:31:07.335Z,18.80
2022-09-15T18:33:34.471Z,18.80
2022-09-15T18:36:02.068Z,18.80
2022-09-15T18:38:29.698Z,18.80
2022-09-15T18:40:57.360Z,18.70
2022-09-15T18:43:27.765Z,18.70
2022-09-15T18:45:59.820Z,18.60
2022-09-15T18:48:29.135Z,18.50
2022-09-15T18:50:56.803Z,18.40
2022-09-15T18:53:24.579Z,18.40
2022-09-15T18:55:51.987Z,18.40
2022-09-15T18:58:19.528Z,18.40
2022-09-15T19:00:46.910Z,18.40
2022-09-15T19:03:14.444Z,18.40
2022-09-15T19:05:42.287Z,18.40
2022-09-15T19:08:11.294Z,18.40
2022-09-15T19:10:41.579Z,18.40
2022-09-15T19:13:11.246Z,18.40
2022-09-15T19:15:43.905Z,18.40
2022-09-15T19:18:12.122Z,18.30
2022-09-15T19:20:40.302Z,18.30
2022-09-15T19:23:08.167Z,18.30
2022-09-15T19:25:36.825Z,18.30
2022-09-15T19:28:04.010Z,18.20
2022-09-15T19:30:31.242Z,18.30
2022-09-15T19:32:58.936Z,18.20
2022-09-15T19:35:26.203Z,18.20
2022-09-15T19:37:53.788Z,18.20
2022-09-15T19:40:23.827Z,18.20
2022-09-15T19:42:51.123Z,18.20
2022-09-15T19:45:18.500Z,18.20
2022-09-15T19:47:45.906Z,18.10
2022-09-15T19:50:13.336Z,18.10
2022-09-15T19:52:40.765Z,18.10
2022-09-15T19:55:09.728Z,18.00
2022-09-15T19:57:42.088Z,18.10
2022-09-15T20:00:12.014Z,18.10
2022-09-15T20:02:40.154Z,18.00
2022-09-15T20:05:08.880Z,18.00
2022-09-15T20:07:36.815Z,18.00
2022-09-15T20:10:04.778Z,18.00
2022-09-15T20:12:32.204Z,18.00
2022-09-15T20:14:59.537Z,18.00
2022-09-15T20:17:27.252Z,17.90
2022-09-15T20:19:54.567Z,17.90
2022-09-15T20:22:21.928Z,17.90
2022-09-15T20:24:49.562Z,17.90
2022-09-15T20:27:16.995Z,17.80
2022-09-15T20:29:44.521Z,17.80
2022-09-15T20:32:11.827Z,17.80
2022-09-15T20:34:39.179Z,17.80
2022-09-15T20:37:07.090Z,17.80
2022-09-15T20:39:35.694Z,17.70
2022-09-15T20:42:07.289Z,17.70
2022-09-15T20:44:34.824Z,17.60
2022-09-15T20:47:04.125Z,17.60
2022-09-15T20:49:31.933Z,17.50
2022-09-15T20:51:59.295Z,17.60
2022-09-15T20:54:26.459Z,17.60
2022-09-15T20:56:53.771Z,17.50
2022-09-15T20:59:21.067Z,17.40
2022-09-15T21:01:48.390Z,17.40
2022-09-15T21:04:15.681Z,17.40
2022-09-15T21:06:42.993Z,17.40
2022-09-15T21:09:10.241Z,17.40
2022-09-15T21:11:37.767Z,17.30
2022-09-15T21:14:05.510Z,17.30
2022-09-15T21:16:34.875Z,17.40
2022-09-15T21:19:03.423Z,17.40
2022-09-15T21:21:32.874Z,17.40
2022-09-15T21:24:04.693Z,17.40
2022-09-15T21:26:57.989Z,17.40
2022-09-15T21:29:27.695Z,17.30
2022-09-15T21:31:56.482Z,17.30
2022-09-15T21:34:24.061Z,17.30
2022-09-15T21:36:53.669Z,17.30
2022-09-15T21:39:21.511Z,17.30
2022-09-15T21:41:48.859Z,17.20
2022-09-15T21:44:16.317Z,17.20
2022-09-15T21:46:46.851Z,17.10
2022-09-15T21:49:14.691Z,17.10
2022-09-15T21:51:41.994Z,17.10
2022-09-15T21:54:10.224Z,17.10
2022-09-15T21:56:37.645Z,17.00
2022-09-15T21:59:05.521Z,17.00
2022-09-15T22:01:33.594Z,17.00
2022-09-15T22:04:06.881Z,17.00
2022-09-15T22:06:40.195Z,17.00
2022-09-15T22:09:15.068Z,17.00
2022-09-15T22:11:43.145Z,17.00
2022-09-15T22:14:11.922Z,16.90
2022-09-15T22:16:42.273Z,16.90
2022-09-15T22:19:11.942Z,16.90
2022-09-15T22:21:41.807Z,16.90
2022-09-15T22:24:13.102Z,16.80
2022-09-15T22:26:42.431Z,16.80
2022-09-15T22:29:10.525Z,16.80
2022-09-15T22:31:38.507Z,16.80
2022-09-15T22:34:06.169Z,16.80
2022-09-15T22:36:33.752Z,16.70
2022-09-15T22:39:05.008Z,16.70
2022-09-15T22:41:36.924Z,16.70
2022-09-15T22:44:06.752Z,16.70
2022-09-15T22:46:34.824Z,16.60
2022-09-15T22:49:02.339Z,16.60
2022-09-15T22:51:33.456Z,16.60
2022-09-15T22:54:03.074Z,16.60
2022-09-15T22:56:30.538Z,16.60
2022-09-15T22:58:57.777Z,16.50
2022-09-15T23:01:30.556Z,16.50
2022-09-15T23:04:01.343Z,16.40
2022-09-15T23:06:32.989Z,16.40
2022-09-15T23:09:05.421Z,16.40
2022-09-15T23:11:33.474Z,16.30
2022-09-15T23:14:01.642Z,16.30
2022-09-15T23:16:30.769Z,16.20
2022-09-15T23:18:59.980Z,16.30
2022-09-15T23:21:28.298Z,16.20
2022-09-15T23:23:55.988Z,16.20
2022-09-15T23:26:25.279Z,16.20
2022-09-15T23:28:53.538Z,16.20
2022-09-15T23:31:21.850Z,16.10
2022-09-15T23:33:49.506Z,16.10
2022-09-15T23:36:21.838Z,16.10
2022-09-15T23:38:49.931Z,16.10
2022-09-15T23:41:18.817Z,16.00
2022-09-15T23:43:46.521Z,16.00
2022-09-15T23:46:14.770Z,16.00
2022-09-15T23:48:42.657Z,16.00
2022-09-15T23:51:10.062Z,16.00
2022-09-15T23:53:37.751Z,15.90
2022-09-15T23:56:05.494Z,15.90
2022-09-15T23:58:32.552Z,15.90
